sensor_id;sensor_type;location;lat;lon;timestamp;P1;durP1;ratioP1;P2;durP2;ratioP2
70744;SDS011;59284;31.390;34.904;2022-12-11T00:01:19;11.40;;;3.60;;
70744;SDS011;59284;31.390;34.904;2022-12-11T00:03:47;13.57;;;4.35;;
70744;SDS011;59284;31.390;34.904;2022-12-11T00:06:17;11.32;;;4.00;;
70744;SDS011;59284;31.390;34.904;2022-12-11T00:08:49;9.88;;;3.78;;
70744;SDS011;59284;31.390;34.904;2022-12-11T00:11:22;8.07;;;3.55;;
70744;SDS011;59284;31.390;34.904;2022-12-11T00:13:58;8.63;;;3.37;;
70744;SDS011;59284;31.390;34.904;2022-12-11T00:16:26;11.38;;;4.28;;
70744;SDS011;59284;31.390;34.904;2022-12-11T00:18:54;15.38;;;4.43;;
70744;SDS011;59284;31.390;34.904;2022-12-11T00:21:23;12.20;;;3.92;;
70744;SDS011;59284;31.390;34.904;2022-12-11T00:23:50;10.13;;;4.07;;
70744;SDS011;59284;31.390;34.904;2022-12-11T00:26:21;10.93;;;5.23;;
70744;SDS011;59284;31.390;34.904;2022-12-11T00:28:50;12.63;;;4.28;;
70744;SDS011;59284;31.390;34.904;2022-12-11T00:31:27;12.85;;;4.13;;
70744;SDS011;59284;31.390;34.904;2022-12-11T00:33:57;9.52;;;4.60;;
70744;SDS011;59284;31.390;34.904;2022-12-11T00:36:30;12.77;;;4.80;;
70744;SDS011;59284;31.390;34.904;2022-12-11T00:38:58;14.27;;;4.87;;
70744;SDS011;59284;31.390;34.904;2022-12-11T00:41:28;12.82;;;5.78;;
70744;SDS011;59284;31.390;34.904;2022-12-11T00:44:00;14.95;;;5.40;;
70744;SDS011;59284;31.390;34.904;2022-12-11T00:46:28;15.30;;;5.43;;
70744;SDS011;59284;31.390;34.904;2022-12-11T00:48:56;19.17;;;5.60;;
70744;SDS011;59284;31.390;34.904;2022-12-11T00:51:27;14.30;;;5.43;;
70744;SDS011;59284;31.390;34.904;2022-12-11T00:53:54;13.43;;;6.22;;
70744;SDS011;59284;31.390;34.904;2022-12-11T00:56:27;18.08;;;5.78;;
70744;SDS011;59284;31.390;34.904;2022-12-11T00:58:56;12.48;;;5.63;;
70744;SDS011;59284;31.390;34.904;2022-12-11T01:01:24;8.65;;;5.00;;
70744;SDS011;59284;31.390;34.904;2022-12-11T01:03:54;16.97;;;6.53;;
70744;SDS011;59284;31.390;34.904;2022-12-11T01:06:23;16.27;;;6.50;;
70744;SDS011;59284;31.390;34.904;2022-12-11T01:09:01;19.08;;;6.22;;
70744;SDS011;59284;31.390;34.904;2022-12-11T01:11:46;10.20;;;5.32;;
70744;SDS011;59284;31.390;34.904;2022-12-11T01:14:16;13.02;;;5.78;;
70744;SDS011;59284;31.390;34.904;2022-12-11T03:51:55;14.35;;;5.80;;
70744;SDS011;59284;31.390;34.904;2022-12-11T03:54:34;14.32;;;5.65;;
70744;SDS011;59284;31.390;34.904;2022-12-11T03:57:15;14.27;;;5.33;;
70744;SDS011;59284;31.390;34.904;2022-12-11T03:59:47;13.57;;;5.95;;
70744;SDS011;59284;31.390;34.904;2022-12-11T04:02:21;14.98;;;6.50;;
70744;SDS011;59284;31.390;34.904;2022-12-11T04:04:51;12.18;;;6.05;;
70744;SDS011;59284;31.390;34.904;2022-12-11T04:07:20;16.02;;;6.22;;
70744;SDS011;59284;31.390;34.904;2022-12-11T04:09:56;18.30;;;6.77;;
70744;SDS011;59284;31.390;34.904;2022-12-11T04:12:24;16.85;;;6.25;;
70744;SDS011;59284;31.390;34.904;2022-12-11T04:14:54;14.27;;;6.13;;
70744;SDS011;59284;31.390;34.904;2022-12-11T04:17:31;11.68;;;5.38;;
70744;SDS011;59284;31.390;34.904;2022-12-11T04:20:20;15.60;;;7.10;;
70744;SDS011;59284;31.390;34.904;2022-12-11T04:23:12;22.53;;;6.57;;
70744;SDS011;59284;31.390;34.904;2022-12-11T04:26:18;20.45;;;5.93;;
70744;SDS011;59284;31.390;34.904;2022-12-11T04:28:50;15.85;;;6.40;;
70744;SDS011;59284;31.390;34.904;2022-12-11T04:31:19;12.38;;;6.60;;
70744;SDS011;59284;31.390;34.904;2022-12-11T04:33:52;12.85;;;5.53;;
70744;SDS011;59284;31.390;34.904;2022-12-11T04:36:21;12.57;;;5.80;;
70744;SDS011;59284;31.390;34.904;2022-12-11T04:38:49;16.60;;;6.85;;
70744;SDS011;59284;31.390;34.904;2022-12-11T04:41:19;15.65;;;5.47;;
70744;SDS011;59284;31.390;34.904;2022-12-11T04:43:51;12.75;;;6.18;;
70744;SDS011;59284;31.390;34.904;2022-12-11T04:46:20;16.73;;;6.72;;
70744;SDS011;59284;31.390;34.904;2022-12-11T04:51:29;14.55;;;5.65;;
70744;SDS011;59284;31.390;34.904;2022-12-11T05:31:02;17.92;;;6.65;;
70744;SDS011;59284;31.390;34.904;2022-12-11T05:33:33;16.00;;;6.70;;
70744;SDS011;59284;31.390;34.904;2022-12-11T05:36:00;17.40;;;6.57;;
70744;SDS011;59284;31.390;34.904;2022-12-11T05:38:26;16.23;;;7.13;;
70744;SDS011;59284;31.390;34.904;2022-12-11T05:41:00;19.33;;;7.30;;
70744;SDS011;59284;31.390;34.904;2022-12-11T05:43:29;15.52;;;6.60;;
70744;SDS011;59284;31.390;34.904;2022-12-11T05:46:07;19.77;;;6.30;;
70744;SDS011;59284;31.390;34.904;2022-12-11T05:48:35;22.95;;;7.03;;
70744;SDS011;59284;31.390;34.904;2022-12-11T05:54:24;17.53;;;6.90;;
70744;SDS011;59284;31.390;34.904;2022-12-11T06:00:12;16.98;;;6.60;;
70744;SDS011;59284;31.390;34.904;2022-12-11T06:02:38;15.90;;;6.85;;
70744;SDS011;59284;31.390;34.904;2022-12-11T06:05:05;16.13;;;7.03;;
70744;SDS011;59284;31.390;34.904;2022-12-11T06:07:31;20.17;;;6.50;;
70744;SDS011;59284;31.390;34.904;2022-12-11T06:09:58;14.93;;;7.40;;
70744;SDS011;59284;31.390;34.904;2022-12-11T06:12:25;18.10;;;7.13;;
70744;SDS011;59284;31.390;34.904;2022-12-11T06:14:54;14.73;;;7.13;;
70744;SDS011;59284;31.390;34.904;2022-12-11T06:17:20;19.80;;;7.32;;
70744;SDS011;59284;31.390;34.904;2022-12-11T06:19:47;20.37;;;8.17;;
70744;SDS011;59284;31.390;34.904;2022-12-11T06:22:13;19.75;;;7.07;;
70744;SDS011;59284;31.390;34.904;2022-12-11T06:24:40;18.75;;;6.95;;
70744;SDS011;59284;31.390;34.904;2022-12-11T06:27:06;14.95;;;6.03;;
70744;SDS011;59284;31.390;34.904;2022-12-11T06:29:33;15.15;;;6.45;;
70744;SDS011;59284;31.390;34.904;2022-12-11T06:31:59;14.80;;;7.13;;
70744;SDS011;59284;31.390;34.904;2022-12-11T06:34:25;11.70;;;5.93;;
70744;SDS011;59284;31.390;34.904;2022-12-11T06:36:52;15.38;;;6.50;;
70744;SDS011;59284;31.390;34.904;2022-12-11T06:39:18;17.75;;;6.63;;
70744;SDS011;59284;31.390;34.904;2022-12-11T06:41:44;15.73;;;6.05;;
70744;SDS011;59284;31.390;34.904;2022-12-11T06:44:10;12.83;;;6.00;;
70744;SDS011;59284;31.390;34.904;2022-12-11T06:46:37;12.98;;;6.15;;
70744;SDS011;59284;31.390;34.904;2022-12-11T06:49:03;15.48;;;6.57;;
70744;SDS011;59284;31.390;34.904;2022-12-11T06:51:29;12.63;;;6.10;;
70744;SDS011;59284;31.390;34.904;2022-12-11T06:53:57;23.40;;;6.87;;
70744;SDS011;59284;31.390;34.904;2022-12-11T06:56:23;16.98;;;6.85;;
70744;SDS011;59284;31.390;34.904;2022-12-11T06:58:52;13.88;;;6.57;;
70744;SDS011;59284;31.390;34.904;2022-12-11T07:01:20;13.85;;;6.70;;
70744;SDS011;59284;31.390;34.904;2022-12-11T07:03:48;14.80;;;7.22;;
70744;SDS011;59284;31.390;34.904;2022-12-11T07:06:22;16.80;;;6.27;;
70744;SDS011;59284;31.390;34.904;2022-12-11T07:08:50;19.35;;;6.93;;
70744;SDS011;59284;31.390;34.904;2022-12-11T07:11:18;17.90;;;7.00;;
70744;SDS011;59284;31.390;34.904;2022-12-11T07:13:45;15.48;;;6.38;;
70744;SDS011;59284;31.390;34.904;2022-12-11T07:16:12;16.40;;;7.40;;
70744;SDS011;59284;31.390;34.904;2022-12-11T07:18:40;16.50;;;7.80;;
70744;SDS011;59284;31.390;34.904;2022-12-11T07:21:09;19.92;;;7.88;;
70744;SDS011;59284;31.390;34.904;2022-12-11T07:23:38;20.75;;;7.30;;
70744;SDS011;59284;31.390;34.904;2022-12-11T07:26:05;24.33;;;6.90;;
70744;SDS011;59284;31.390;34.904;2022-12-11T07:28:37;20.20;;;6.90;;
70744;SDS011;59284;31.390;34.904;2022-12-11T07:31:07;17.30;;;6.37;;
70744;SDS011;59284;31.390;34.904;2022-12-11T07:33:37;14.52;;;6.57;;
70744;SDS011;59284;31.390;34.904;2022-12-11T07:36:05;16.65;;;6.65;;
70744;SDS011;59284;31.390;34.904;2022-12-11T07:38:33;23.27;;;7.20;;
70744;SDS011;59284;31.390;34.904;2022-12-11T07:41:01;23.58;;;7.03;;
70744;SDS011;59284;31.390;34.904;2022-12-11T07:43:28;17.10;;;6.63;;
70744;SDS011;59284;31.390;34.904;2022-12-11T07:45:54;17.67;;;6.70;;
70744;SDS011;59284;31.390;34.904;2022-12-11T07:48:25;22.45;;;7.50;;
70744;SDS011;59284;31.390;34.904;2022-12-11T07:50:51;16.30;;;6.28;;
70744;SDS011;59284;31.390;34.904;2022-12-11T07:53:17;22.95;;;7.65;;
70744;SDS011;59284;31.390;34.904;2022-12-11T07:55:43;15.83;;;7.10;;
70744;SDS011;59284;31.390;34.904;2022-12-11T07:58:10;19.15;;;6.40;;
70744;SDS011;59284;31.390;34.904;2022-12-11T08:00:36;14.07;;;6.75;;
70744;SDS011;59284;31.390;34.904;2022-12-11T08:03:02;15.95;;;6.40;;
70744;SDS011;59284;31.390;34.904;2022-12-11T08:05:29;21.30;;;6.88;;
70744;SDS011;59284;31.390;34.904;2022-12-11T08:07:55;15.10;;;6.40;;
70744;SDS011;59284;31.390;34.904;2022-12-11T08:10:22;16.17;;;6.03;;
70744;SDS011;59284;31.390;34.904;2022-12-11T08:12:48;14.85;;;6.93;;
70744;SDS011;59284;31.390;34.904;2022-12-11T08:15:14;12.70;;;6.85;;
70744;SDS011;59284;31.390;34.904;2022-12-11T08:17:40;19.05;;;7.15;;
70744;SDS011;59284;31.390;34.904;2022-12-11T08:20:06;12.17;;;6.40;;
70744;SDS011;59284;31.390;34.904;2022-12-11T08:22:33;24.73;;;7.43;;
70744;SDS011;59284;31.390;34.904;2022-12-11T08:24:59;17.00;;;6.95;;
70744;SDS011;59284;31.390;34.904;2022-12-11T08:27:26;17.73;;;6.72;;
70744;SDS011;59284;31.390;34.904;2022-12-11T08:29:52;17.15;;;6.47;;
70744;SDS011;59284;31.390;34.904;2022-12-11T08:32:18;16.10;;;7.43;;
70744;SDS011;59284;31.390;34.904;2022-12-11T08:34:44;17.98;;;6.93;;
70744;SDS011;59284;31.390;34.904;2022-12-11T08:37:11;16.45;;;6.35;;
70744;SDS011;59284;31.390;34.904;2022-12-11T08:39:37;13.32;;;6.55;;
70744;SDS011;59284;31.390;34.904;2022-12-11T08:42:03;14.88;;;7.18;;
70744;SDS011;59284;31.390;34.904;2022-12-11T08:44:30;16.40;;;7.60;;
70744;SDS011;59284;31.390;34.904;2022-12-11T08:46:56;17.85;;;7.13;;
70744;SDS011;59284;31.390;34.904;2022-12-11T08:49:22;17.40;;;6.43;;
70744;SDS011;59284;31.390;34.904;2022-12-11T08:51:49;14.45;;;5.40;;
70744;SDS011;59284;31.390;34.904;2022-12-11T08:54:17;12.45;;;5.32;;
70744;SDS011;59284;31.390;34.904;2022-12-11T08:56:44;14.73;;;4.93;;
70744;SDS011;59284;31.390;34.904;2022-12-11T08:59:10;10.95;;;5.10;;
70744;SDS011;59284;31.390;34.904;2022-12-11T09:01:37;17.05;;;5.82;;
70744;SDS011;59284;31.390;34.904;2022-12-11T09:04:04;13.50;;;5.63;;
70744;SDS011;59284;31.390;34.904;2022-12-11T09:06:31;12.23;;;6.40;;
70744;SDS011;59284;31.390;34.904;2022-12-11T09:08:59;10.00;;;5.30;;
70744;SDS011;59284;31.390;34.904;2022-12-11T09:11:27;11.35;;;5.03;;
70744;SDS011;59284;31.390;34.904;2022-12-11T09:13:56;13.50;;;5.38;;
70744;SDS011;59284;31.390;34.904;2022-12-11T09:16:24;10.55;;;6.00;;
70744;SDS011;59284;31.390;34.904;2022-12-11T09:18:52;11.30;;;5.25;;
70744;SDS011;59284;31.390;34.904;2022-12-11T09:21:23;12.90;;;5.47;;
70744;SDS011;59284;31.390;34.904;2022-12-11T09:23:54;14.45;;;5.18;;
70744;SDS011;59284;31.390;34.904;2022-12-11T09:26:22;11.85;;;5.13;;
70744;SDS011;59284;31.390;34.904;2022-12-11T09:28:51;12.93;;;6.32;;
70744;SDS011;59284;31.390;34.904;2022-12-11T09:31:20;13.98;;;5.72;;
70744;SDS011;59284;31.390;34.904;2022-12-11T09:33:54;12.80;;;5.30;;
70744;SDS011;59284;31.390;34.904;2022-12-11T09:36:22;9.75;;;5.57;;
70744;SDS011;59284;31.390;34.904;2022-12-11T09:38:48;14.38;;;5.47;;
70744;SDS011;59284;31.390;34.904;2022-12-11T09:44:01;9.43;;;4.93;;
70744;SDS011;59284;31.390;34.904;2022-12-11T09:46:39;7.93;;;4.87;;
70744;SDS011;59284;31.390;34.904;2022-12-11T09:52:01;8.85;;;4.38;;
70744;SDS011;59284;31.390;34.904;2022-12-11T09:54:33;10.80;;;5.68;;
70744;SDS011;59284;31.390;34.904;2022-12-11T09:57:02;10.73;;;5.50;;
70744;SDS011;59284;31.390;34.904;2022-12-11T10:02:41;15.55;;;5.10;;
70744;SDS011;59284;31.390;34.904;2022-12-11T10:05:35;16.27;;;5.57;;
70744;SDS011;59284;31.390;34.904;2022-12-11T10:08:15;14.00;;;5.22;;
70744;SDS011;59284;31.390;34.904;2022-12-11T10:13:31;11.40;;;5.00;;
70744;SDS011;59284;31.390;34.904;2022-12-11T10:19:49;13.55;;;5.38;;
70744;SDS011;59284;31.390;34.904;2022-12-11T10:22:26;8.65;;;4.93;;
70744;SDS011;59284;31.390;34.904;2022-12-11T10:24:58;7.35;;;4.03;;
70744;SDS011;59284;31.390;34.904;2022-12-11T10:27:28;11.13;;;5.03;;
70744;SDS011;59284;31.390;34.904;2022-12-11T10:35:55;11.77;;;4.80;;
70744;SDS011;59284;31.390;34.904;2022-12-11T10:41:00;10.60;;;4.70;;
70744;SDS011;59284;31.390;34.904;2022-12-11T10:43:36;10.00;;;4.85;;
70744;SDS011;59284;31.390;34.904;2022-12-11T10:46:03;9.45;;;5.10;;
70744;SDS011;59284;31.390;34.904;2022-12-11T10:48:29;14.20;;;4.85;;
70744;SDS011;59284;31.390;34.904;2022-12-11T10:51:03;7.93;;;4.28;;
70744;SDS011;59284;31.390;34.904;2022-12-11T10:53:32;12.57;;;4.50;;
70744;SDS011;59284;31.390;34.904;2022-12-11T10:55:59;9.63;;;4.30;;
70744;SDS011;59284;31.390;34.904;2022-12-11T10:58:27;9.77;;;4.90;;
70744;SDS011;59284;31.390;34.904;2022-12-11T11:01:08;9.60;;;4.60;;
70744;SDS011;59284;31.390;34.904;2022-12-11T11:03:56;13.02;;;4.00;;
70744;SDS011;59284;31.390;34.904;2022-12-11T11:06:40;14.27;;;4.60;;
70744;SDS011;59284;31.390;34.904;2022-12-11T11:09:25;9.63;;;3.78;;
70744;SDS011;59284;31.390;34.904;2022-12-11T11:11:58;12.15;;;4.35;;
70744;SDS011;59284;31.390;34.904;2022-12-11T11:14:24;15.50;;;4.57;;
70744;SDS011;59284;31.390;34.904;2022-12-11T11:16:51;10.43;;;3.95;;
70744;SDS011;59284;31.390;34.904;2022-12-11T11:19:23;12.67;;;4.93;;
70744;SDS011;59284;31.390;34.904;2022-12-11T11:21:58;11.85;;;5.40;;
70744;SDS011;59284;31.390;34.904;2022-12-11T11:24:55;8.80;;;4.50;;
70744;SDS011;59284;31.390;34.904;2022-12-11T11:27:27;10.82;;;4.70;;
70744;SDS011;59284;31.390;34.904;2022-12-11T11:30:16;7.55;;;3.45;;
70744;SDS011;59284;31.390;34.904;2022-12-11T11:32:45;14.07;;;5.13;;
70744;SDS011;59284;31.390;34.904;2022-12-11T11:37:38;7.82;;;3.78;;
70744;SDS011;59284;31.390;34.904;2022-12-11T11:45:29;9.97;;;4.33;;
70744;SDS011;59284;31.390;34.904;2022-12-11T11:50:54;12.25;;;4.10;;
70744;SDS011;59284;31.390;34.904;2022-12-11T11:53:31;13.43;;;4.40;;
70744;SDS011;59284;31.390;34.904;2022-12-11T11:58:47;14.70;;;4.03;;
70744;SDS011;59284;31.390;34.904;2022-12-11T12:01:21;13.35;;;4.15;;
70744;SDS011;59284;31.390;34.904;2022-12-11T12:03:48;9.82;;;4.32;;
70744;SDS011;59284;31.390;34.904;2022-12-11T12:09:16;14.95;;;3.92;;
70744;SDS011;59284;31.390;34.904;2022-12-11T12:17:15;9.88;;;3.97;;
70744;SDS011;59284;31.390;34.904;2022-12-11T12:42:10;8.00;;;3.55;;
70744;SDS011;59284;31.390;34.904;2022-12-11T12:47:25;12.88;;;3.80;;
70744;SDS011;59284;31.390;34.904;2022-12-11T12:49:55;7.60;;;3.53;;
70744;SDS011;59284;31.390;34.904;2022-12-11T12:52:31;14.80;;;3.63;;
70744;SDS011;59284;31.390;34.904;2022-12-11T12:57:54;12.57;;;3.53;;
70744;SDS011;59284;31.390;34.904;2022-12-11T13:00:29;9.80;;;3.55;;
70744;SDS011;59284;31.390;34.904;2022-12-11T13:05:58;9.63;;;3.40;;
70744;SDS011;59284;31.390;34.904;2022-12-11T13:11:05;10.93;;;3.53;;
70744;SDS011;59284;31.390;34.904;2022-12-11T13:13:42;11.85;;;3.15;;
70744;SDS011;59284;31.390;34.904;2022-12-11T13:18:44;10.03;;;2.73;;
70744;SDS011;59284;31.390;34.904;2022-12-11T13:26:47;8.52;;;3.58;;
70744;SDS011;59284;31.390;34.904;2022-12-11T13:32:04;6.83;;;2.93;;
70744;SDS011;59284;31.390;34.904;2022-12-11T13:35:05;8.13;;;3.45;;
70744;SDS011;59284;31.390;34.904;2022-12-11T13:37:42;11.10;;;3.70;;
70744;SDS011;59284;31.390;34.904;2022-12-11T13:40:22;10.00;;;3.78;;
70744;SDS011;59284;31.390;34.904;2022-12-11T13:42:58;9.48;;;3.65;;
70744;SDS011;59284;31.390;34.904;2022-12-11T13:45:29;7.77;;;3.23;;
70744;SDS011;59284;31.390;34.904;2022-12-11T13:48:26;12.93;;;4.15;;
70744;SDS011;59284;31.390;34.904;2022-12-11T13:50:58;8.88;;;3.10;;
70744;SDS011;59284;31.390;34.904;2022-12-11T13:53:29;9.95;;;3.47;;
70744;SDS011;59284;31.390;34.904;2022-12-11T13:55:57;14.13;;;4.63;;
70744;SDS011;59284;31.390;34.904;2022-12-11T13:58:25;9.97;;;3.47;;
70744;SDS011;59284;31.390;34.904;2022-12-11T14:00:53;11.57;;;4.10;;
70744;SDS011;59284;31.390;34.904;2022-12-11T14:03:29;7.50;;;3.45;;
70744;SDS011;59284;31.390;34.904;2022-12-11T14:05:57;12.80;;;3.70;;
70744;SDS011;59284;31.390;34.904;2022-12-11T14:08:26;10.05;;;3.53;;
70744;SDS011;59284;31.390;34.904;2022-12-11T14:11:00;12.50;;;3.17;;
70744;SDS011;59284;31.390;34.904;2022-12-11T14:13:36;14.02;;;3.63;;
70744;SDS011;59284;31.390;34.904;2022-12-11T14:16:06;9.63;;;4.07;;
70744;SDS011;59284;31.390;34.904;2022-12-11T14:18:34;12.27;;;3.25;;
70744;SDS011;59284;31.390;34.904;2022-12-11T14:21:02;7.82;;;3.22;;
70744;SDS011;59284;31.390;34.904;2022-12-11T14:23:36;16.70;;;3.53;;
70744;SDS011;59284;31.390;34.904;2022-12-11T14:26:16;8.07;;;3.38;;
70744;SDS011;59284;31.390;34.904;2022-12-11T14:28:48;11.52;;;3.75;;
70744;SDS011;59284;31.390;34.904;2022-12-11T14:31:17;14.70;;;5.97;;
70744;SDS011;59284;31.390;34.904;2022-12-11T14:33:51;27.10;;;7.90;;
70744;SDS011;59284;31.390;34.904;2022-12-11T14:36:23;22.43;;;9.47;;
70744;SDS011;59284;31.390;34.904;2022-12-11T14:38:53;23.52;;;11.15;;
70744;SDS011;59284;31.390;34.904;2022-12-11T14:47:22;32.20;;;14.23;;
70744;SDS011;59284;31.390;34.904;2022-12-11T14:49:58;31.40;;;13.50;;
70744;SDS011;59284;31.390;34.904;2022-12-11T14:52:38;34.97;;;13.50;;
70744;SDS011;59284;31.390;34.904;2022-12-11T14:55:29;33.85;;;13.30;;
70744;SDS011;59284;31.390;34.904;2022-12-11T14:58:23;32.33;;;14.32;;
70744;SDS011;59284;31.390;34.904;2022-12-11T15:01:05;36.70;;;16.02;;
70744;SDS011;59284;31.390;34.904;2022-12-11T15:03:47;33.20;;;14.67;;
70744;SDS011;59284;31.390;34.904;2022-12-11T15:06:28;39.38;;;13.82;;
70744;SDS011;59284;31.390;34.904;2022-12-11T15:12:29;29.65;;;11.75;;
70744;SDS011;59284;31.390;34.904;2022-12-11T15:16:05;26.33;;;12.18;;
70744;SDS011;59284;31.390;34.904;2022-12-11T15:53:22;45.08;;;13.07;;
70744;SDS011;59284;31.390;34.904;2022-12-11T15:55:50;30.13;;;11.70;;
70744;SDS011;59284;31.390;34.904;2022-12-11T15:58:19;32.67;;;10.65;;
70744;SDS011;59284;31.390;34.904;2022-12-11T16:00:48;26.10;;;9.10;;
70744;SDS011;59284;31.390;34.904;2022-12-11T16:03:19;27.83;;;10.82;;
70744;SDS011;59284;31.390;34.904;2022-12-11T16:05:55;35.47;;;11.13;;
70744;SDS011;59284;31.390;34.904;2022-12-11T16:08:23;26.00;;;8.93;;
70744;SDS011;59284;31.390;34.904;2022-12-11T16:10:51;19.10;;;8.73;;
70744;SDS011;59284;31.390;34.904;2022-12-11T16:13:21;27.50;;;9.10;;
70744;SDS011;59284;31.390;34.904;2022-12-11T16:15:51;26.83;;;8.38;;
70744;SDS011;59284;31.390;34.904;2022-12-11T16:18:20;23.92;;;10.00;;
70744;SDS011;59284;31.390;34.904;2022-12-11T16:20:49;33.00;;;14.52;;
70744;SDS011;59284;31.390;34.904;2022-12-11T16:23:17;36.95;;;15.23;;
70744;SDS011;59284;31.390;34.904;2022-12-11T16:25:47;38.67;;;14.53;;
70744;SDS011;59284;31.390;34.904;2022-12-11T16:28:16;32.30;;;14.32;;
70744;SDS011;59284;31.390;34.904;2022-12-11T16:30:45;35.22;;;12.93;;
70744;SDS011;59284;31.390;34.904;2022-12-11T16:33:14;29.75;;;12.25;;
70744;SDS011;59284;31.390;34.904;2022-12-11T16:35:42;36.03;;;14.25;;
70744;SDS011;59284;31.390;34.904;2022-12-11T16:38:10;34.17;;;14.93;;
70744;SDS011;59284;31.390;34.904;2022-12-11T16:40:44;36.53;;;14.82;;
70744;SDS011;59284;31.390;34.904;2022-12-11T16:43:18;34.83;;;14.23;;
70744;SDS011;59284;31.390;34.904;2022-12-11T16:45:52;33.42;;;12.90;;
70744;SDS011;59284;31.390;34.904;2022-12-11T16:48:26;37.65;;;12.90;;
70744;SDS011;59284;31.390;34.904;2022-12-11T16:50:59;36.00;;;12.80;;
70744;SDS011;59284;31.390;34.904;2022-12-11T16:53:28;32.45;;;12.23;;
70744;SDS011;59284;31.390;34.904;2022-12-11T16:56:06;32.50;;;11.13;;
70744;SDS011;59284;31.390;34.904;2022-12-11T17:19:13;23.17;;;7.20;;
70744;SDS011;59284;31.390;34.904;2022-12-11T17:21:56;16.48;;;6.90;;
70744;SDS011;59284;31.390;34.904;2022-12-11T17:24:26;20.60;;;7.50;;
70744;SDS011;59284;31.390;34.904;2022-12-11T17:26:58;18.20;;;6.25;;
70744;SDS011;59284;31.390;34.904;2022-12-11T17:29:30;79.40;;;9.57;;
70744;SDS011;59284;31.390;34.904;2022-12-11T17:31:59;15.98;;;5.45;;
70744;SDS011;59284;31.390;34.904;2022-12-11T17:34:29;12.20;;;5.55;;
70744;SDS011;59284;31.390;34.904;2022-12-11T17:36:58;17.42;;;5.40;;
70744;SDS011;59284;31.390;34.904;2022-12-11T17:39:25;12.95;;;6.07;;
70744;SDS011;59284;31.390;34.904;2022-12-11T17:41:59;14.83;;;5.17;;
70744;SDS011;59284;31.390;34.904;2022-12-11T17:44:28;13.10;;;5.60;;
70744;SDS011;59284;31.390;34.904;2022-12-11T17:46:58;14.73;;;5.60;;
70744;SDS011;59284;31.390;34.904;2022-12-11T17:49:38;15.20;;;5.72;;
70744;SDS011;59284;31.390;34.904;2022-12-11T17:52:30;32.80;;;5.85;;
70744;SDS011;59284;31.390;34.904;2022-12-11T19:35:17;16.25;;;5.55;;
70744;SDS011;59284;31.390;34.904;2022-12-11T19:37:49;16.48;;;5.38;;
70744;SDS011;59284;31.390;34.904;2022-12-11T19:40:18;14.80;;;4.88;;
70744;SDS011;59284;31.390;34.904;2022-12-11T19:42:46;15.87;;;4.73;;
70744;SDS011;59284;31.390;34.904;2022-12-11T19:45:13;13.23;;;4.57;;
70744;SDS011;59284;31.390;34.904;2022-12-11T19:47:41;9.70;;;3.70;;
70744;SDS011;59284;31.390;34.904;2022-12-11T19:50:15;13.50;;;4.32;;
70744;SDS011;59284;31.390;34.904;2022-12-11T19:52:42;14.57;;;3.90;;
70744;SDS011;59284;31.390;34.904;2022-12-11T19:55:13;14.47;;;4.63;;
70744;SDS011;59284;31.390;34.904;2022-12-11T19:57:39;13.23;;;3.95;;
70744;SDS011;59284;31.390;34.904;2022-12-11T20:00:14;14.00;;;3.58;;
70744;SDS011;59284;31.390;34.904;2022-12-11T20:02:41;11.02;;;3.47;;
70744;SDS011;59284;31.390;34.904;2022-12-11T20:05:13;11.90;;;4.40;;
70744;SDS011;59284;31.390;34.904;2022-12-11T20:07:42;9.50;;;3.37;;
70744;SDS011;59284;31.390;34.904;2022-12-11T20:10:10;8.82;;;3.40;;
70744;SDS011;59284;31.390;34.904;2022-12-11T20:12:41;12.93;;;3.50;;
70744;SDS011;59284;31.390;34.904;2022-12-11T20:15:11;14.75;;;3.67;;
70744;SDS011;59284;31.390;34.904;2022-12-11T20:17:46;11.93;;;3.33;;
70744;SDS011;59284;31.390;34.904;2022-12-11T20:20:19;9.90;;;3.43;;
70744;SDS011;59284;31.390;34.904;2022-12-11T20:22:46;17.90;;;3.65;;
70744;SDS011;59284;31.390;34.904;2022-12-11T20:25:18;13.05;;;3.97;;
70744;SDS011;59284;31.390;34.904;2022-12-11T20:27:45;10.63;;;3.90;;
70744;SDS011;59284;31.390;34.904;2022-12-11T20:30:17;11.35;;;3.50;;
70744;SDS011;59284;31.390;34.904;2022-12-11T20:32:44;11.30;;;3.80;;
70744;SDS011;59284;31.390;34.904;2022-12-11T20:35:12;8.38;;;3.00;;
70744;SDS011;59284;31.390;34.904;2022-12-11T20:37:39;11.55;;;3.53;;
70744;SDS011;59284;31.390;34.904;2022-12-11T20:40:10;14.93;;;3.60;;
70744;SDS011;59284;31.390;34.904;2022-12-11T20:46:03;11.53;;;4.13;;
70744;SDS011;59284;31.390;34.904;2022-12-11T20:48:32;9.57;;;4.18;;
70744;SDS011;59284;31.390;34.904;2022-12-11T20:51:03;9.65;;;3.80;;
70744;SDS011;59284;31.390;34.904;2022-12-11T20:53:53;16.23;;;4.47;;
70744;SDS011;59284;31.390;34.904;2022-12-11T20:56:43;11.02;;;3.67;;
70744;SDS011;59284;31.390;34.904;2022-12-11T20:59:18;10.27;;;4.00;;
70744;SDS011;59284;31.390;34.904;2022-12-11T21:01:50;11.38;;;4.63;;
70744;SDS011;59284;31.390;34.904;2022-12-11T21:04:22;11.27;;;4.07;;
70744;SDS011;59284;31.390;34.904;2022-12-11T21:06:56;10.95;;;4.00;;
70744;SDS011;59284;31.390;34.904;2022-12-11T21:09:27;14.75;;;4.30;;
70744;SDS011;59284;31.390;34.904;2022-12-11T21:12:01;11.03;;;4.40;;
70744;SDS011;59284;31.390;34.904;2022-12-11T21:14:40;10.45;;;4.20;;
70744;SDS011;59284;31.390;34.904;2022-12-11T21:17:11;14.27;;;4.28;;
70744;SDS011;59284;31.390;34.904;2022-12-11T23:33:19;10.73;;;4.38;;
70744;SDS011;59284;31.390;34.904;2022-12-11T23:35:49;11.83;;;4.47;;
70744;SDS011;59284;31.390;34.904;2022-12-11T23:38:19;12.65;;;4.57;;
70744;SDS011;59284;31.390;34.904;2022-12-11T23:40:48;10.77;;;4.07;;
70744;SDS011;59284;31.390;34.904;2022-12-11T23:43:22;18.00;;;4.80;;
70744;SDS011;59284;31.390;34.904;2022-12-11T23:45:54;11.23;;;4.32;;
70744;SDS011;59284;31.390;34.904;2022-12-11T23:48:23;11.10;;;3.93;;
70744;SDS011;59284;31.390;34.904;2022-12-11T23:50:51;14.80;;;4.30;;
70744;SDS011;59284;31.390;34.904;2022-12-11T23:53:23;10.45;;;4.30;;
70744;SDS011;59284;31.390;34.904;2022-12-11T23:55:52;14.18;;;4.80;;
70744;SDS011;59284;31.390;34.904;2022-12-11T23:58:52;12.18;;;4.03;;
